5NK5 weather

Kingdom Field
Oswego, New York, United States

Public forecast

Using degrees Fahrenheit for public forecast. Weather courtesy of forecast.io.

Closest aviation weather report (METAR) to Kingdom Field

Closest report is Oswego County Airport, 4.2 nm (7.7 km) SE. Retrieved 2019/11/14 15:36 UTC (0 seconds ago):

KFZY 141536Z AUTO 17009KT 2SM -SN SCT022 BKN036 OVC048 M02/M06 A3024 RMK AO2 P0000 T10221056

Closest aviation forecast (TAF) to Kingdom Field

Closest forecast is Syracuse Hancock International Airport, 23.1 nm (42.8 km) SE. Retrieved 2019/11/14 12:22 UTC (3 hours ago):

TAF KSYR 141120Z 1412/1512 VRB04KT P6SM OVC090 FM141900 19008KT P6SM SCT150 FM150300 VRB04KT P6SM SCT060